Time;durP1;ratioP1;P1;durP2;ratioP2;P2;SDS_P1;SDS_P2;PMS_P1;PMS_P2;Temp;Humidity;BMP_temperature;BMP_pressure;BME280_temperature;BME280_humidity;BME280_pressure;Samples;Min_cycle;Max_cycle;Signal;HPM_P1;HPM_P2
2023/05/29 00:02:50;;;;;;;8.50;4.90;;;;;;;10.57;68.26;98962.41;225248;1284;22550;-70
2023/05/29 00:07:55;;;;;;;7.90;4.30;;;;;;;10.49;68.45;98957.59;225338;1284;22549;-71
2023/05/29 00:13:07;;;;;;;8.00;4.70;;;;;;;10.42;69.09;98951.16;225246;1282;22531;-71
2023/05/29 00:18:12;;;;;;;8.00;4.50;;;;;;;10.36;69.17;98955.27;225239;1282;22559;-70
2023/05/29 00:23:16;;;;;;;8.70;5.00;;;;;;;10.30;69.43;98951.15;225317;1284;22566;-72
2023/05/29 00:28:21;;;;;;;7.90;4.90;;;;;;;10.24;69.55;98947.69;225282;1284;22607;-70
2023/05/29 00:33:24;;;;;;;7.30;4.90;;;;;;;10.17;69.78;98949.46;225198;1283;24414;-70
2023/05/29 00:38:30;;;;;;;6.80;5.00;;;;;;;10.12;69.86;98950.27;225260;1284;22543;-71
2023/05/29 00:43:38;;;;;;;7.90;5.10;;;;;;;10.07;70.12;98951.89;225342;1284;22549;-71
2023/05/29 00:48:44;;;;;;;8.90;5.40;;;;;;;10.04;70.52;98955.30;225323;1280;22543;-71
2023/05/29 00:53:48;;;;;;;8.30;5.10;;;;;;;10.01;70.33;98948.27;225285;1282;22550;-70
2023/05/29 00:59:01;;;;;;;8.80;4.70;;;;;;;10.01;70.25;98949.84;225333;1284;22561;-70
2023/05/29 01:09:26;;;;;;;7.60;4.90;;;;;;;10.00;70.35;98945.86;225252;1261;22584;-71
2023/05/29 01:14:48;;;;;;;10.40;5.50;;;;;;;10.01;70.79;98938.46;225270;1283;22548;-70
2023/05/29 01:20:20;;;;;;;8.30;5.50;;;;;;;10.00;70.92;98940.61;225294;1281;22550;-70
2023/05/29 01:26:13;;;;;;;12.60;5.70;;;;;;;9.98;70.56;98949.30;225302;1277;22542;-69
2023/05/29 01:31:26;;;;;;;10.90;6.20;;;;;;;9.94;70.98;98944.17;225334;1281;22554;-69
2023/05/29 01:36:54;;;;;;;11.40;6.00;;;;;;;9.89;71.05;98944.52;225304;1284;22554;-70
2023/05/29 01:42:17;;;;;;;8.80;5.70;;;;;;;9.84;71.20;98943.44;225145;1285;22553;-69
2023/05/29 01:47:20;;;;;;;;;;;;;;;9.77;71.47;98942.85;225181;1285;22694;-70
2023/05/29 01:52:23;;;;;;;10.60;6.30;;;;;;;9.70;71.82;98933.11;225175;1285;26201;-73
2023/05/29 01:57:30;;;;;;;10.60;6.40;;;;;;;9.64;71.83;98932.77;225142;1284;22557;-70
2023/05/29 02:03:11;;;;;;;10.30;6.20;;;;;;;9.57;72.28;98926.50;225115;1285;22574;-72
2023/05/29 02:08:16;;;;;;;10.30;5.70;;;;;;;9.52;72.21;98929.13;225114;1276;23081;-70
2023/05/29 02:13:19;;;;;;;10.50;5.60;;;;;;;9.47;72.57;98929.98;225228;1281;23286;-71
2023/05/29 02:18:25;;;;;;;9.60;5.60;;;;;;;9.40;72.40;98931.45;225258;1278;22590;-71
2023/05/29 02:23:28;;;;;;;9.90;5.50;;;;;;;9.33;72.78;98927.72;225342;1278;22714;-70
2023/05/29 02:28:30;;;;;;;11.50;5.70;;;;;;;9.27;72.77;98931.91;225267;1284;22589;-70
2023/05/29 02:33:33;;;;;;;10.90;5.90;;;;;;;9.22;73.22;98926.01;225292;1280;24259;-70
2023/05/29 02:38:36;;;;;;;17.10;6.10;;;;;;;9.17;73.30;98922.53;225314;1282;22557;-71
2023/05/29 02:43:38;;;;;;;9.40;6.00;;;;;;;9.13;73.60;98923.34;225276;1283;22540;-70
2023/05/29 02:49:00;;;;;;;12.20;5.90;;;;;;;9.09;73.72;98922.34;225332;1283;22549;-70
2023/05/29 02:54:03;;;;;;;12.00;6.30;;;;;;;9.06;73.82;98915.54;225293;1284;22567;-70
2023/05/29 02:59:28;;;;;;;11.50;6.10;;;;;;;9.04;74.17;98914.23;225246;1284;23636;-70
2023/05/29 03:04:50;;;;;;;10.40;6.00;;;;;;;9.03;74.47;98914.98;225317;1284;22601;-71
2023/05/29 03:09:55;;;;;;;12.60;5.90;;;;;;;9.05;74.62;98914.63;225219;1283;22611;-70
2023/05/29 03:15:00;;;;;;;10.40;6.70;;;;;;;9.09;74.48;98915.72;225221;1283;22549;-71
2023/05/29 03:20:06;;;;;;;12.60;7.40;;;;;;;9.15;74.70;98914.30;225295;1284;22549;-70
2023/05/29 03:25:11;;;;;;;11.60;7.10;;;;;;;9.24;74.64;98911.16;225268;1284;22657;-70
2023/05/29 03:30:14;;;;;;;11.10;6.60;;;;;;;9.35;74.70;98916.02;225285;1281;22557;-70
2023/05/29 03:35:25;;;;;;;14.20;7.20;;;;;;;9.48;74.69;98913.58;225235;1284;22550;-70
2023/05/29 03:40:27;;;;;;;12.70;7.80;;;;;;;9.64;74.33;98916.25;225270;1281;22553;-71
2023/05/29 03:45:30;;;;;;;11.70;7.70;;;;;;;9.80;74.66;98920.66;225323;1284;22553;-70
2023/05/29 03:50:35;;;;;;;15.20;8.00;;;;;;;9.95;74.44;98924.34;225243;1284;22682;-69
2023/05/29 03:55:38;;;;;;;11.50;7.80;;;;;;;10.11;74.53;98923.35;225261;1284;22630;-69
2023/05/29 04:00:42;;;;;;;12.20;7.20;;;;;;;10.27;74.60;98919.06;225202;1284;22558;-69
2023/05/29 04:05:53;;;;;;;11.10;6.90;;;;;;;10.45;74.43;98915.73;225156;1283;22546;-70
2023/05/29 04:11:16;;;;;;;12.10;8.20;;;;;;;10.64;74.60;98917.87;225212;1284;24249;-70
2023/05/29 04:16:25;;;;;;;14.50;7.40;;;;;;;10.81;74.19;98920.91;225283;1284;22756;-69
2023/05/29 04:21:28;;;;;;;15.00;8.40;;;;;;;10.99;73.83;98928.43;225252;1284;22543;-72
2023/05/29 04:26:33;;;;;;;12.60;8.70;;;;;;;11.16;73.47;98929.97;225337;1280;22664;-70
2023/05/29 04:31:49;;;;;;;;;;;;;;;;;;;;;
2023/05/29 04:36:53;;;;;;;13.10;8.10;;;;;;;11.48;72.84;98938.04;225271;1284;22564;-71
2023/05/29 04:41:58;;;;;;;12.00;7.50;;;;;;;11.63;72.88;98944.58;225239;1283;22661;-70
2023/05/29 04:47:04;;;;;;;12.40;7.40;;;;;;;11.77;72.50;98950.23;225262;1284;22648;-71
2023/05/29 04:52:20;;;;;;;15.00;7.90;;;;;;;11.91;72.42;98954.89;225306;1280;25428;-71
2023/05/29 04:57:36;;;;;;;14.00;8.00;;;;;;;12.04;72.63;98957.42;225315;1284;21788;-69
2023/05/29 05:02:43;;;;;;;11.20;7.60;;;;;;;12.17;72.44;98963.27;225215;1283;22540;-69
2023/05/29 05:07:47;;;;;;;14.10;7.70;;;;;;;12.30;72.56;98965.59;225282;1284;22547;-69
2023/05/29 05:12:50;;;;;;;14.20;7.90;;;;;;;12.45;72.53;98970.65;225264;1280;22558;-71
2023/05/29 05:17:58;;;;;;;11.50;8.30;;;;;;;12.58;72.50;98970.65;225279;1278;22539;-70
2023/05/29 05:23:15;;;;;;;13.80;8.20;;;;;;;12.70;71.99;98971.61;225260;1284;22547;-72
2023/05/29 05:28:18;;;;;;;14.60;8.70;;;;;;;12.88;71.87;98973.39;225279;1281;22530;-70
2023/05/29 05:33:23;;;;;;;14.30;8.40;;;;;;;13.12;71.92;98968.27;225225;1271;23147;-72
2023/05/29 05:38:29;;;;;;;16.70;8.30;;;;;;;13.35;71.70;98969.58;225342;1280;22558;-71
2023/05/29 05:43:35;;;;;;;11.20;7.80;;;;;;;13.57;71.48;98967.87;225260;1283;27334;-71
2023/05/29 05:48:44;;;;;;;13.20;8.60;;;;;;;13.75;71.48;98970.61;225084;1281;22577;-70
2023/05/29 05:53:50;;;;;;;16.10;8.80;;;;;;;13.96;71.88;98972.95;225149;1265;22540;-71
2023/05/29 05:59:00;;;;;;;10.80;8.50;;;;;;;14.20;71.93;98971.66;225121;1276;22715;-72
2023/05/29 06:04:20;;;;;;;13.00;8.70;;;;;;;14.43;71.83;98972.05;224542;1264;138163;-70
2023/05/29 06:09:24;;;;;;;17.70;8.70;;;;;;;14.66;71.77;98972.13;224690;1263;138397;-71
2023/05/29 06:14:30;;;;;;;14.60;8.60;;;;;;;14.87;70.93;98976.76;224685;1272;138552;-71
2023/05/29 06:19:35;;;;;;;13.40;7.70;;;;;;;15.06;70.54;98979.83;224659;1273;139237;-71
2023/05/29 06:24:38;;;;;;;14.60;8.20;;;;;;;15.29;69.90;98988.19;224730;1268;138571;-71
2023/05/29 06:29:41;;;;;;;13.10;8.10;;;;;;;15.54;69.29;98992.73;224854;1275;138636;-74
2023/05/29 06:34:53;;;;;;;11.80;7.60;;;;;;;15.79;69.02;98994.14;224867;1276;22576;-72
2023/05/29 06:40:04;;;;;;;12.70;8.10;;;;;;;16.00;68.37;98993.85;224889;1278;22543;-72
2023/05/29 06:45:15;;;;;;;11.10;8.00;;;;;;;16.15;67.26;98991.72;224821;1280;137632;-73
2023/05/29 06:50:25;;;;;;;16.60;8.40;;;;;;;16.31;67.28;98999.31;224949;1277;137981;-72
2023/05/29 06:55:40;;;;;;;14.70;8.00;;;;;;;16.52;66.68;99005.80;224943;1276;137970;-72
2023/05/29 07:01:05;;;;;;;13.90;7.60;;;;;;;16.70;66.20;99008.35;224962;1265;138085;-71
2023/05/29 07:06:29;;;;;;;12.60;7.30;;;;;;;16.94;65.81;99016.30;224995;1281;138029;-72
2023/05/29 07:11:41;;;;;;;14.40;7.70;;;;;;;17.22;65.43;99020.45;225190;1261;137904;-73
2023/05/29 07:16:52;;;;;;;10.20;6.30;;;;;;;17.46;64.86;99020.58;225013;1277;22667;-73
2023/05/29 07:21:57;;;;;;;12.40;6.20;;;;;;;17.65;64.04;99012.48;224934;1272;137390;-73
2023/05/29 07:27:14;;;;;;;10.10;6.20;;;;;;;17.79;63.62;99014.05;224924;1277;137843;-73
2023/05/29 07:32:23;;;;;;;13.80;5.90;;;;;;;18.02;63.07;99013.91;224990;1278;137885;-74
2023/05/29 07:37:54;;;;;;;8.30;5.40;;;;;;;18.21;62.86;99014.98;224708;1268;138083;-73
2023/05/29 07:43:05;;;;;;;12.70;6.90;;;;;;;18.42;62.55;99009.57;224878;1268;138025;-73
2023/05/29 07:48:50;;;;;;;15.50;4.90;;;;;;;18.61;60.84;99014.89;224848;1274;138128;-72
2023/05/29 07:54:23;;;;;;;7.30;3.60;;;;;;;18.81;59.95;99010.63;224583;1279;138126;-78
2023/05/29 07:59:28;;;;;;;9.20;2.80;;;;;;;19.01;59.28;99012.55;224391;1268;137660;-74
2023/05/29 08:04:57;;;;;;;8.00;2.70;;;;;;;19.24;58.77;99024.85;224684;1285;22566;-74
2023/05/29 08:10:05;;;;;;;5.60;2.70;;;;;;;19.46;57.98;99018.59;224875;1278;137118;-74
2023/05/29 08:15:11;;;;;;;4.70;2.40;;;;;;;19.67;57.30;99019.41;224619;1265;137688;-74
2023/05/29 08:20:21;;;;;;;6.60;2.70;;;;;;;19.88;56.92;99019.36;224795;1268;137776;-72
2023/05/29 08:25:36;;;;;;;5.50;2.00;;;;;;;20.06;56.08;99019.39;224692;1278;138294;-73
2023/05/29 08:30:56;;;;;;;11.50;2.30;;;;;;;20.24;54.71;99016.62;224806;1264;137789;-73
2023/05/29 08:36:08;;;;;;;4.30;1.90;;;;;;;20.48;54.27;99015.04;225042;1260;138418;-72
2023/05/29 08:41:22;;;;;;;2.90;1.90;;;;;;;20.67;53.03;99016.53;224994;1272;137889;-73
2023/05/29 08:46:39;;;;;;;3.80;1.80;;;;;;;20.86;52.44;99020.17;224913;1271;22547;-70
2023/05/29 08:51:50;;;;;;;3.00;1.80;;;;;;;21.00;51.48;99020.69;224925;1265;137687;-73
2023/05/29 08:56:52;;;;;;;5.10;2.20;;;;;;;21.07;50.34;99013.26;225057;1277;137634;-73
2023/05/29 09:01:57;;;;;;;7.40;3.10;;;;;;;21.22;50.44;99016.79;224957;1284;137923;-72
2023/05/29 09:07:03;;;;;;;3.20;2.20;;;;;;;21.33;50.18;99017.30;224866;1283;137830;-74
2023/05/29 09:12:05;;;;;;;5.80;2.50;;;;;;;21.42;50.04;99014.00;225033;1281;137936;-75
2023/05/29 09:17:30;;;;;;;6.20;2.60;;;;;;;21.56;49.67;99010.81;225029;1281;137697;-75
2023/05/29 09:22:45;;;;;;;4.80;2.70;;;;;;;21.71;49.84;99017.27;225120;1275;22555;-72
2023/05/29 09:28:18;;;;;;;3.90;2.40;;;;;;;21.88;49.76;99012.90;224983;1283;137902;-72
2023/05/29 09:33:25;;;;;;;5.60;2.20;;;;;;;22.08;49.69;99012.13;225134;1283;138160;-72
2023/05/29 09:38:56;;;;;;;4.60;2.20;;;;;;;22.20;48.24;99012.55;225076;1281;136926;-79
2023/05/29 09:44:30;;;;;;;3.60;2.20;;;;;;;22.24;47.30;99012.91;224960;1283;137784;-74
2023/05/29 09:49:56;;;;;;;2.60;2.30;;;;;;;22.32;47.57;99008.91;225178;1283;137783;-74
2023/05/29 09:55:21;;;;;;;4.90;2.60;;;;;;;22.45;47.45;99005.99;225123;1283;137770;-73
2023/05/29 10:00:28;;;;;;;6.10;2.60;;;;;;;22.57;47.62;99005.05;224935;1279;138177;-72
2023/05/29 10:05:59;;;;;;;2.50;2.20;;;;;;;22.76;47.21;99005.11;224901;1284;137792;-73
2023/05/29 10:11:15;;;;;;;3.40;2.40;;;;;;;22.85;46.40;98996.50;225072;1275;138162;-75
2023/05/29 10:16:39;;;;;;;3.80;2.30;;;;;;;22.92;45.93;98999.65;225303;1281;22571;-74
2023/05/29 10:21:55;;;;;;;5.00;2.20;;;;;;;22.94;45.51;98998.97;225095;1281;137838;-75
2023/05/29 10:27:09;;;;;;;2.70;2.30;;;;;;;23.01;45.52;98998.78;224366;1289;138438;-74
2023/05/29 10:32:41;;;;;;;5.80;2.40;;;;;;;23.07;45.13;99000.64;224449;1287;137788;-73
2023/05/29 10:38:24;;;;;;;6.50;2.60;;;;;;;23.14;45.36;98999.64;221939;1289;3292938;-74
2023/05/29 10:44:10;;;;;;;4.60;2.60;;;;;;;23.34;46.08;98992.80;224773;1271;138033;-74
2023/05/29 10:49:21;;;;;;;3.90;2.40;;;;;;;23.51;45.43;98994.25;224871;1277;137829;-74
2023/05/29 10:54:39;;;;;;;3.10;2.60;;;;;;;23.57;44.80;98991.16;224886;1275;137878;-74
2023/05/29 11:00:00;;;;;;;3.50;2.30;;;;;;;23.66;45.07;98987.33;224751;1284;137887;-74
2023/05/29 11:05:20;;;;;;;4.60;2.40;;;;;;;23.76;44.65;98987.77;224793;1280;22945;-74
2023/05/29 11:11:06;;;;;;;8.90;3.20;;;;;;;23.72;44.07;98976.98;224804;1280;23128;-74
2023/05/29 11:16:54;;;;;;;3.40;2.20;;;;;;;23.75;44.03;98975.54;224807;1285;23183;-74
2023/05/29 11:22:22;;;;;;;4.10;2.80;;;;;;;23.75;43.68;98978.27;224784;1284;137436;-75
2023/05/29 11:27:29;;;;;;;4.20;2.70;;;;;;;23.73;43.53;98974.40;224851;1280;137784;-75
2023/05/29 11:32:49;;;;;;;3.60;2.30;;;;;;;23.65;43.00;98972.16;224903;1262;137556;-74
2023/05/29 11:38:03;;;;;;;3.20;2.60;;;;;;;23.74;43.46;98974.93;224774;1272;137970;-74
2023/05/29 11:43:05;;;;;;;4.40;2.70;;;;;;;23.89;43.62;98978.55;224869;1272;137735;-74
2023/05/29 11:48:11;;;;;;;4.40;2.50;;;;;;;24.04;43.35;98976.83;224832;1280;137729;-76
2023/05/29 11:53:22;;;;;;;4.10;2.60;;;;;;;24.10;43.08;98972.06;224894;1280;137928;-74
2023/05/29 11:58:34;;;;;;;6.60;3.10;;;;;;;24.17;42.88;98970.73;224981;1281;22560;-74
2023/05/29 12:03:43;;;;;;;3.40;2.50;;;;;;;24.15;42.14;98961.86;224870;1285;137524;-74
2023/05/29 12:08:59;;;;;;;3.80;2.50;;;;;;;24.07;42.48;98961.00;225066;1282;137754;-74
2023/05/29 12:14:07;;;;;;;3.10;2.00;;;;;;;24.05;42.35;98954.95;224904;1278;137893;-76
2023/05/29 12:19:13;;;;;;;8.80;2.60;;;;;;;24.07;42.23;98946.09;224956;1284;137817;-75
2023/05/29 12:24:26;;;;;;;5.60;2.60;;;;;;;24.04;42.36;98949.34;224925;1284;137747;-74
2023/05/29 12:29:33;;;;;;;3.80;2.50;;;;;;;24.09;42.52;98946.31;224875;1283;137842;-74
2023/05/29 12:34:40;;;;;;;3.80;2.60;;;;;;;24.04;42.52;98934.77;225022;1279;22562;-74
2023/05/29 12:39:43;;;;;;;5.70;2.70;;;;;;;24.02;42.70;98930.40;224859;1281;137414;-73
2023/05/29 12:44:51;;;;;;;3.60;2.10;;;;;;;24.06;42.81;98930.00;224898;1284;137880;-72
2023/05/29 12:49:54;;;;;;;4.10;2.40;;;;;;;24.05;42.71;98928.66;224897;1278;138567;-72
2023/05/29 12:55:02;;;;;;;4.10;2.50;;;;;;;23.96;42.96;98924.24;224857;1281;137749;-72
2023/05/29 13:00:06;;;;;;;6.30;2.90;;;;;;;23.87;43.05;98917.58;224871;1272;138706;-71
2023/05/29 13:05:09;;;;;;;6.20;2.60;;;;;;;23.84;42.47;98918.16;224808;1274;137882;-74
2023/05/29 13:10:12;;;;;;;3.90;2.70;;;;;;;23.86;42.58;98908.13;224921;1279;22546;-73
2023/05/29 13:15:14;;;;;;;5.00;2.20;;;;;;;23.88;42.96;98905.74;224891;1284;137777;-71
2023/05/29 13:20:22;;;;;;;3.60;2.50;;;;;;;23.97;43.44;98903.35;224867;1277;137855;-73
2023/05/29 13:25:49;;;;;;;;;;;;;;;;;;;;;
2023/05/29 13:31:03;;;;;;;3.70;2.60;;;;;;;24.11;43.15;98890.00;224841;1267;137787;-73
2023/05/29 13:36:26;;;;;;;5.00;2.90;;;;;;;24.05;43.22;98886.48;224841;1277;137850;-74
2023/05/29 13:41:42;;;;;;;3.40;2.60;;;;;;;24.06;43.64;98883.40;224831;1276;137781;-76
2023/05/29 13:46:53;;;;;;;3.40;2.70;;;;;;;24.05;43.16;98881.14;224973;1261;23053;-74
2023/05/29 13:52:19;;;;;;;4.00;3.10;;;;;;;24.03;43.09;98872.15;224821;1280;137597;-87
2023/05/29 13:57:39;;;;;;;6.70;3.10;;;;;;;24.02;43.33;98868.31;224751;1277;138424;-73
2023/05/29 14:02:45;;;;;;;4.80;2.80;;;;;;;24.03;43.28;98864.54;224633;1276;138434;-75
2023/05/29 14:07:53;;;;;;;4.70;2.90;;;;;;;24.07;42.96;98865.21;224793;1278;22594;-74
2023/05/29 14:12:55;;;;;;;14.60;3.20;;;;;;;24.00;42.89;98866.16;224738;1278;22555;-71
2023/05/29 14:17:58;;;;;;;4.90;2.80;;;;;;;23.99;43.08;98861.95;224672;1280;22564;-72
2023/05/29 14:23:09;;;;;;;3.50;3.00;;;;;;;23.99;43.19;98856.55;224980;1282;22635;-71
2023/05/29 14:28:14;;;;;;;3.70;3.00;;;;;;;24.04;43.26;98858.48;224839;1283;22588;-72
2023/05/29 14:33:25;;;;;;;6.60;2.70;;;;;;;23.98;43.00;98847.42;225199;1283;22542;-71
2023/05/29 14:38:36;;;;;;;3.40;3.00;;;;;;;23.97;43.09;98838.30;225117;1282;22624;-72
2023/05/29 14:43:42;;;;;;;3.70;3.00;;;;;;;24.00;43.13;98835.00;225099;1277;22706;-72
2023/05/29 14:48:47;;;;;;;5.10;3.70;;;;;;;24.02;43.30;98833.33;225139;1285;25249;-71
2023/05/29 14:53:55;;;;;;;;;;;;;;;24.09;43.36;98832.38;225178;1285;24237;-71
2023/05/29 14:58:57;;;;;;;5.00;3.10;;;;;;;24.16;43.27;98832.75;225167;1282;22544;-72
2023/05/29 15:04:12;;;;;;;3.20;2.60;;;;;;;24.20;43.77;98833.31;225150;1285;22559;-71
2023/05/29 15:09:15;;;;;;;7.30;3.20;;;;;;;24.22;43.84;98835.32;225097;1283;22566;-71
2023/05/29 15:14:30;;;;;;;6.40;3.00;;;;;;;24.22;43.23;98832.56;225103;1283;22529;-71
2023/05/29 15:19:35;;;;;;;4.10;2.90;;;;;;;24.23;43.70;98830.40;225115;1285;22558;-71
2023/05/29 15:24:38;;;;;;;6.40;3.20;;;;;;;24.23;43.42;98831.23;225135;1284;24341;-71
2023/05/29 15:29:46;;;;;;;3.60;3.00;;;;;;;24.25;43.20;98831.28;225141;1281;22548;-70
2023/05/29 15:34:52;;;;;;;4.00;2.90;;;;;;;24.24;42.77;98833.27;225198;1280;24278;-70
2023/05/29 15:39:55;;;;;;;5.90;2.70;;;;;;;24.18;42.96;98838.73;225168;1280;22533;-70
2023/05/29 15:44:58;;;;;;;5.10;2.70;;;;;;;24.15;42.72;98827.84;225152;1284;22722;-71
2023/05/29 15:50:01;;;;;;;3.60;2.60;;;;;;;24.09;42.70;98830.16;225130;1279;22612;-71
2023/05/29 15:55:04;;;;;;;5.60;3.20;;;;;;;24.04;43.01;98831.27;225183;1277;23454;-71
2023/05/29 16:00:12;;;;;;;3.60;2.40;;;;;;;23.96;43.15;98829.61;225147;1284;22615;-70
2023/05/29 16:05:18;;;;;;;2.60;2.40;;;;;;;23.91;43.18;98826.65;225242;1281;24293;-71
2023/05/29 16:10:24;;;;;;;7.50;2.50;;;;;;;23.90;43.29;98823.69;225231;1280;22586;-72
2023/05/29 16:15:26;;;;;;;4.60;2.80;;;;;;;23.84;43.18;98825.70;225273;1280;22550;-70
2023/05/29 16:20:34;;;;;;;4.80;3.00;;;;;;;23.79;43.83;98822.63;225214;1285;22613;-70
2023/05/29 16:25:41;;;;;;;4.10;2.60;;;;;;;23.76;44.38;98821.70;225265;1276;22644;-73
2023/05/29 16:30:45;;;;;;;2.80;2.50;;;;;;;23.73;44.32;98820.77;225267;1281;22542;-72
2023/05/29 16:35:48;;;;;;;4.20;2.50;;;;;;;23.73;44.68;98822.16;225238;1283;25360;-71
2023/05/29 16:40:51;;;;;;;3.60;2.50;;;;;;;23.62;43.90;98825.30;225274;1284;22543;-70
2023/05/29 16:45:53;;;;;;;4.40;2.50;;;;;;;23.45;43.73;98830.20;225237;1284;25526;-72
2023/05/29 16:50:56;;;;;;;3.20;2.60;;;;;;;23.36;44.62;98825.28;225356;1276;22554;-72
2023/05/29 16:55:59;;;;;;;4.60;2.50;;;;;;;23.38;45.01;98827.65;225279;1284;23425;-71
2023/05/29 17:01:04;;;;;;;2.90;2.60;;;;;;;23.33;44.72;98826.41;225211;1281;22567;-71
2023/05/29 17:06:08;;;;;;;3.30;2.60;;;;;;;23.24;44.53;98830.89;225306;1284;22717;-71
2023/05/29 17:11:13;;;;;;;4.80;2.60;;;;;;;23.24;45.06;98828.46;225272;1282;22558;-72
2023/05/29 17:16:24;;;;;;;4.60;2.80;;;;;;;23.74;45.28;98831.38;225258;1277;22556;-70
2023/05/29 17:21:32;;;;;;;4.30;2.50;;;;;;;24.71;45.06;98835.40;225248;1283;22561;-72
2023/05/29 17:26:37;;;;;;;3.20;2.90;;;;;;;25.38;43.90;98838.49;225213;1284;22549;-72
2023/05/29 17:31:40;;;;;;;3.90;2.80;;;;;;;25.73;43.34;98839.45;225220;1269;22548;-71
2023/05/29 17:36:43;;;;;;;4.00;2.70;;;;;;;25.73;42.70;98843.19;225222;1280;22557;-71
2023/05/29 17:41:45;;;;;;;6.40;3.20;;;;;;;25.19;42.04;98849.67;225247;1277;22562;-70
2023/05/29 17:46:50;;;;;;;5.20;3.30;;;;;;;24.46;42.14;98848.42;225237;1283;22593;-70
2023/05/29 17:51:56;;;;;;;6.70;3.50;;;;;;;23.76;42.48;98840.05;225246;1278;22554;-71
2023/05/29 17:56:59;;;;;;;3.90;3.00;;;;;;;23.10;42.65;98843.81;225236;1283;22547;-70
2023/05/29 18:02:10;;;;;;;3.90;2.80;;;;;;;22.49;43.29;98846.05;225189;1284;25298;-70
2023/05/29 18:07:15;;;;;;;3.70;2.80;;;;;;;21.97;43.97;98848.48;225245;1283;22592;-70
2023/05/29 18:12:21;;;;;;;3.60;2.50;;;;;;;21.54;44.59;98852.57;225263;1277;22604;-72
2023/05/29 18:17:38;;;;;;;5.50;2.30;;;;;;;21.14;44.97;98864.63;225256;1280;25288;-70
2023/05/29 18:22:43;;;;;;;3.30;2.60;;;;;;;20.80;45.38;98868.04;225299;1277;22553;-70
2023/05/29 18:27:46;;;;;;;3.90;2.40;;;;;;;20.49;45.87;98872.61;225310;1280;22533;-70
2023/05/29 18:33:02;;;;;;;4.90;2.90;;;;;;;20.22;46.10;98872.03;225270;1278;22557;-70
2023/05/29 18:38:12;;;;;;;4.50;2.30;;;;;;;19.95;46.54;98874.32;225280;1272;22503;-71
2023/05/29 18:43:20;;;;;;;5.30;2.70;;;;;;;19.69;46.97;98871.66;225198;1284;22568;-70
2023/05/29 18:48:31;;;;;;;5.30;2.40;;;;;;;19.43;47.36;98878.26;225207;1280;25928;-70
2023/05/29 18:53:44;;;;;;;;;;;;;;;19.18;47.75;98882.01;225233;1284;25272;-72
2023/05/29 18:58:49;;;;;;;5.60;3.30;;;;;;;18.96;48.09;98885.30;225253;1284;22563;-70
2023/05/29 19:03:51;;;;;;;3.20;2.70;;;;;;;18.77;48.42;98889.75;225254;1284;22552;-69
2023/05/29 19:09:02;;;;;;;4.20;2.70;;;;;;;18.61;48.59;98892.47;225290;1280;22564;-69
2023/05/29 19:14:09;;;;;;;3.50;2.60;;;;;;;18.48;48.57;98892.92;225280;1276;25316;-71
2023/05/29 19:19:23;;;;;;;6.40;3.00;;;;;;;18.38;48.76;98900.23;225311;1280;22552;-70
2023/05/29 19:24:28;;;;;;;6.10;2.60;;;;;;;18.32;48.98;98902.61;225314;1262;22547;-69
2023/05/29 19:29:33;;;;;;;4.60;2.80;;;;;;;18.26;48.83;98910.09;225271;1279;22556;-71
2023/05/29 19:34:39;;;;;;;3.50;2.80;;;;;;;18.22;49.06;98918.65;225278;1284;24731;-69
2023/05/29 19:39:42;;;;;;;4.20;2.80;;;;;;;18.16;49.08;98920.27;225205;1281;22537;-70
2023/05/29 19:44:45;;;;;;;4.20;3.20;;;;;;;18.10;49.32;98925.45;225210;1283;22542;-70
2023/05/29 19:49:50;;;;;;;5.50;3.00;;;;;;;18.02;49.54;98931.55;225292;1284;24212;-69
2023/05/29 19:54:53;;;;;;;5.30;3.30;;;;;;;17.90;49.91;98937.27;225263;1283;22552;-72
2023/05/29 19:59:58;;;;;;;6.60;3.90;;;;;;;17.75;50.40;98938.63;225268;1284;24262;-69
2023/05/29 20:05:05;;;;;;;6.70;3.30;;;;;;;17.62;50.81;98948.55;225326;1284;22536;-71
2023/05/29 20:10:09;;;;;;;6.10;3.50;;;;;;;17.50;50.89;98953.73;225223;1260;22553;-69
2023/05/29 20:15:12;;;;;;;4.60;3.20;;;;;;;17.41;51.20;98959.41;225280;1283;22541;-70
2023/05/29 20:20:25;;;;;;;7.50;3.10;;;;;;;17.32;51.39;98958.02;225346;1284;22892;-69
2023/05/29 20:25:30;;;;;;;4.70;3.00;;;;;;;17.24;51.42;98959.73;225381;1281;22543;-70
2023/05/29 20:30:41;;;;;;;4.20;3.10;;;;;;;17.14;51.65;98958.96;225347;1283;22667;-70
2023/05/29 20:35:44;;;;;;;4.80;3.10;;;;;;;17.03;51.90;98959.70;225298;1283;22548;-71
2023/05/29 20:40:56;;;;;;;5.00;3.10;;;;;;;16.91;52.28;98962.92;225228;1284;22550;-71
2023/05/29 20:46:34;;;;;;;4.60;3.30;;;;;;;16.79;52.45;98958.70;225285;1284;22650;-70
2023/05/29 20:51:39;;;;;;;7.20;3.40;;;;;;;16.70;52.66;98962.96;225272;1281;22570;-70
2023/05/29 20:56:54;;;;;;;4.20;3.50;;;;;;;16.61;53.01;98958.86;225237;1283;26042;-71
2023/05/29 21:01:57;;;;;;;5.50;3.60;;;;;;;16.55;53.29;98957.97;225314;1284;22549;-70
2023/05/29 21:06:59;;;;;;;8.50;3.80;;;;;;;16.49;53.25;98955.11;225190;1284;22647;-69
2023/05/29 21:12:11;;;;;;;6.70;3.80;;;;;;;16.43;53.88;98952.48;225265;1278;25254;-71
2023/05/29 21:17:22;;;;;;;6.00;3.80;;;;;;;16.35;53.76;98948.13;225243;1278;24301;-70
2023/05/29 21:22:28;;;;;;;5.30;3.60;;;;;;;16.28;54.32;98948.52;225286;1283;22530;-70
2023/05/29 21:27:40;;;;;;;7.00;4.20;;;;;;;16.21;54.60;98950.84;225282;1284;22551;-70
2023/05/29 21:32:48;;;;;;;8.40;4.20;;;;;;;16.09;54.76;98943.25;225330;1280;22549;-71
2023/05/29 21:38:14;;;;;;;6.40;4.20;;;;;;;15.97;55.52;98936.20;225280;1284;22557;-70
2023/05/29 21:43:26;;;;;;;9.50;5.20;;;;;;;15.82;55.92;98934.23;225322;1280;22553;-69
2023/05/29 21:48:29;;;;;;;12.10;5.20;;;;;;;15.67;56.30;98933.58;225285;1282;22557;-70
2023/05/29 21:53:41;;;;;;;8.60;4.90;;;;;;;15.47;56.97;98928.48;225270;1284;22696;-71
2023/05/29 21:58:46;;;;;;;7.90;4.80;;;;;;;15.34;57.60;98935.85;225211;1282;22556;-70
2023/05/29 22:04:01;;;;;;;8.70;4.50;;;;;;;15.22;58.06;98932.55;225321;1284;24195;-69
2023/05/29 22:09:10;;;;;;;7.60;4.90;;;;;;;15.15;58.53;98937.08;225273;1277;22852;-70
2023/05/29 22:14:12;;;;;;;6.50;4.30;;;;;;;15.13;58.72;98934.84;225255;1281;22543;-70
2023/05/29 22:19:16;;;;;;;8.90;4.50;;;;;;;15.20;59.06;98939.67;225333;1279;22544;-69
2023/05/29 22:24:22;;;;;;;6.30;4.70;;;;;;;15.29;59.11;98942.04;225192;1284;22570;-69
2023/05/29 22:29:28;;;;;;;10.50;5.00;;;;;;;15.36;58.82;98943.59;225257;1281;22552;-68
2023/05/29 22:34:33;;;;;;;8.40;5.30;;;;;;;15.40;58.77;98949.92;225264;1265;25403;-69
2023/05/29 22:39:42;;;;;;;9.00;4.70;;;;;;;15.44;58.76;98950.86;221212;1281;5375273;-69
2023/05/29 22:45:06;;;;;;;6.20;4.80;;;;;;;15.49;59.13;98948.98;225266;1284;23280;-69
2023/05/29 22:50:09;;;;;;;8.10;4.80;;;;;;;15.54;59.24;98946.19;225283;1276;22629;-70
2023/05/29 22:55:15;;;;;;;13.40;4.80;;;;;;;15.57;59.03;98947.02;225267;1280;22549;-69
2023/05/29 23:00:24;;;;;;;6.60;4.50;;;;;;;15.55;59.10;98944.77;225257;1281;22664;-69
2023/05/29 23:05:27;;;;;;;8.60;4.80;;;;;;;15.53;59.26;98942.01;225251;1284;22558;-68
2023/05/29 23:10:38;;;;;;;5.20;4.30;;;;;;;15.49;59.33;98942.88;225247;1284;22534;-71
2023/05/29 23:15:53;;;;;;;8.90;4.80;;;;;;;15.45;59.37;98945.50;225266;1284;22550;-69
2023/05/29 23:21:06;;;;;;;7.90;4.80;;;;;;;15.41;59.80;98947.50;225279;1283;22875;-71
2023/05/29 23:26:16;;;;;;;7.10;4.80;;;;;;;15.38;59.87;98952.72;225310;1284;24228;-70
2023/05/29 23:31:35;;;;;;;8.40;4.90;;;;;;;15.34;59.94;98949.83;225243;1284;22575;-71
2023/05/29 23:37:10;;;;;;;9.70;5.10;;;;;;;15.29;60.16;98950.55;225262;1282;24288;-69
2023/05/29 23:42:16;;;;;;;7.50;4.70;;;;;;;15.25;60.55;98951.54;225325;1281;22566;-70
2023/05/29 23:47:23;;;;;;;7.20;5.10;;;;;;;15.22;60.50;98949.86;225357;1284;23050;-69
2023/05/29 23:52:36;;;;;;;7.20;5.10;;;;;;;15.17;60.72;98945.86;225259;1284;22546;-70
2023/05/29 23:57:56;;;;;;;8.40;5.20;;;;;;;15.12;60.85;98949.71;225244;1284;22554;-70
